createdAt,value
2023-06-11T00:03:55.916Z,15.25
2023-06-11T00:06:24.345Z,15.05
2023-06-11T00:08:52.615Z,15.25
2023-06-11T00:11:19.897Z,13.10
2023-06-11T00:13:47.111Z,19.65
2023-06-11T00:16:15.138Z,15.27
2023-06-11T00:18:42.966Z,15.73
2023-06-11T00:21:14.602Z,16.55
2023-06-11T00:23:41.567Z,15.10
2023-06-11T00:28:36.125Z,16.65
2023-06-11T00:33:31.644Z,14.73
2023-06-11T00:35:58.531Z,17.73
2023-06-11T00:38:25.319Z,20.30
2023-06-11T00:40:52.500Z,19.92
2023-06-11T00:43:22.604Z,19.17
2023-06-11T00:45:52.815Z,18.17
2023-06-11T00:48:22.817Z,18.85
2023-06-11T00:50:50.199Z,16.13
2023-06-11T00:53:19.034Z,17.88
2023-06-11T00:55:46.913Z,17.40
2023-06-11T00:58:15.732Z,11.07
2023-06-11T01:00:45.274Z,15.48
2023-06-11T01:03:18.684Z,18.58
2023-06-11T01:05:51.721Z,13.88
2023-06-11T01:08:20.783Z,16.80
2023-06-11T01:10:52.247Z,19.65
2023-06-11T01:13:19.021Z,19.27
2023-06-11T01:15:45.789Z,13.85
2023-06-11T01:18:20.531Z,11.95
2023-06-11T01:21:04.561Z,10.02
2023-06-11T01:23:57.260Z,11.95
2023-06-11T01:26:24.064Z,12.23
2023-06-11T01:28:55.841Z,11.70
2023-06-11T01:31:26.500Z,9.10
2023-06-11T01:33:54.200Z,13.25
2023-06-11T01:36:25.677Z,11.30
2023-06-11T01:38:52.840Z,9.10
2023-06-11T01:41:32.589Z,8.18
2023-06-11T01:44:00.559Z,9.43
2023-06-11T01:48:55.151Z,9.88
2023-06-11T01:51:23.109Z,9.27
2023-06-11T01:53:49.971Z,10.63
2023-06-11T01:56:16.884Z,10.05
2023-06-11T01:58:46.539Z,12.68
2023-06-11T02:01:13.431Z,8.82
2023-06-11T02:03:43.689Z,10.75
2023-06-11T02:06:11.855Z,10.40
2023-06-11T02:08:38.768Z,12.32
2023-06-11T02:11:05.653Z,11.90
2023-06-11T02:16:00.042Z,11.05
2023-06-11T02:18:26.934Z,14.20
2023-06-11T02:20:53.694Z,14.93
2023-06-11T02:23:20.657Z,12.82
2023-06-11T02:28:14.498Z,14.63
2023-06-11T02:33:08.890Z,17.13
2023-06-11T02:35:36.539Z,10.80
2023-06-11T02:38:03.342Z,10.57
2023-06-11T02:40:30.158Z,11.52
2023-06-11T02:42:56.901Z,14.35
2023-06-11T02:45:23.652Z,17.70
2023-06-11T02:47:50.526Z,17.25
2023-06-11T02:52:44.039Z,15.90
2023-06-11T02:55:11.010Z,17.83
2023-06-11T02:57:38.096Z,20.90
2023-06-11T03:00:06.953Z,16.35
2023-06-11T03:02:34.067Z,17.42
2023-06-11T03:05:01.203Z,15.48
2023-06-11T03:09:54.771Z,14.73
2023-06-11T03:12:22.200Z,15.88
2023-06-11T03:14:49.153Z,14.63
2023-06-11T03:17:16.903Z,16.90
2023-06-11T03:19:43.702Z,17.75
2023-06-11T03:22:11.549Z,13.27
2023-06-11T03:24:38.393Z,13.48
2023-06-11T03:27:15.477Z,11.77
2023-06-11T03:32:12.954Z,14.30
2023-06-11T03:34:44.077Z,12.10
2023-06-11T03:37:11.794Z,15.55
2023-06-11T03:39:38.762Z,12.38
2023-06-11T03:42:05.835Z,16.02
2023-06-11T03:44:32.715Z,13.35
2023-06-11T03:47:00.075Z,17.55
2023-06-11T03:49:26.884Z,15.10
2023-06-11T03:51:53.855Z,16.77
2023-06-11T03:54:20.614Z,14.15
2023-06-11T03:56:49.086Z,18.17
2023-06-11T04:01:43.286Z,12.27
2023-06-11T04:04:10.207Z,16.73
2023-06-11T04:06:40.910Z,12.32
2023-06-11T04:09:08.407Z,12.52
2023-06-11T04:11:35.851Z,9.25
2023-06-11T04:14:03.975Z,18.45
2023-06-11T04:16:30.923Z,12.18
2023-06-11T04:18:58.245Z,14.50
2023-06-11T04:23:53.187Z,11.38
2023-06-11T04:26:20.562Z,9.73
2023-06-11T04:28:49.827Z,13.18
2023-06-11T04:31:18.131Z,11.30
2023-06-11T04:33:47.150Z,11.45
2023-06-11T04:36:14.686Z,11.40
2023-06-11T04:38:46.085Z,12.88
2023-06-11T04:41:15.338Z,10.90
2023-06-11T04:43:46.527Z,11.85
2023-06-11T04:46:13.502Z,13.05
2023-06-11T04:48:40.539Z,13.05
2023-06-11T04:51:07.382Z,15.90
2023-06-11T04:53:39.845Z,11.13
2023-06-11T04:56:09.219Z,13.63
2023-06-11T04:58:38.685Z,11.30
2023-06-11T05:01:06.359Z,15.27
2023-06-11T05:03:38.213Z,10.98
2023-06-11T05:06:06.902Z,10.90
2023-06-11T05:08:35.855Z,9.82
2023-06-11T05:11:04.303Z,11.35
2023-06-11T05:13:33.373Z,11.07
2023-06-11T05:16:04.955Z,15.00
2023-06-11T05:18:31.958Z,17.58
2023-06-11T05:21:01.902Z,11.95
2023-06-11T05:23:30.554Z,10.07
2023-06-11T05:26:02.934Z,16.13
2023-06-11T05:28:32.889Z,11.60
2023-06-11T05:33:28.141Z,13.73
2023-06-11T05:35:55.306Z,12.60
2023-06-11T05:38:22.577Z,11.55
2023-06-11T05:40:49.985Z,14.25
2023-06-11T05:43:17.554Z,11.43
2023-06-11T05:45:51.233Z,11.50
2023-06-11T05:48:20.336Z,11.23
2023-06-11T05:50:49.083Z,14.98
2023-06-11T05:53:24.252Z,13.50
2023-06-11T05:55:55.405Z,17.27
2023-06-11T05:58:23.609Z,11.95
2023-06-11T06:00:52.833Z,16.05
2023-06-11T06:03:19.833Z,10.07
2023-06-11T06:08:14.157Z,13.70
2023-06-11T06:10:42.286Z,13.70
2023-06-11T06:13:09.502Z,12.95
2023-06-11T06:18:04.768Z,12.27
2023-06-11T06:20:39.166Z,12.88
2023-06-11T06:23:06.328Z,13.20
2023-06-11T06:25:39.972Z,12.73
2023-06-11T06:28:11.300Z,10.43
2023-06-11T06:30:43.369Z,11.13
2023-06-11T06:33:11.842Z,12.57
2023-06-11T06:35:40.668Z,12.30
2023-06-11T06:38:08.992Z,14.52
2023-06-11T06:40:37.573Z,13.70
2023-06-11T06:43:04.988Z,14.02
2023-06-11T06:45:35.035Z,13.85
2023-06-11T06:48:10.903Z,11.35
2023-06-11T06:50:38.260Z,12.13
2023-06-11T06:53:05.080Z,10.95
2023-06-11T06:55:32.077Z,11.27
2023-06-11T06:58:06.457Z,10.13
2023-06-11T07:00:33.693Z,11.10
2023-06-11T07:03:01.747Z,10.68
2023-06-11T07:05:32.701Z,8.43
2023-06-11T07:07:59.765Z,9.82
2023-06-11T07:10:28.368Z,9.85
2023-06-11T07:13:00.326Z,10.75
2023-06-11T07:15:28.439Z,9.15
2023-06-11T07:20:31.028Z,10.43
2023-06-11T07:23:04.214Z,13.05
2023-06-11T07:25:34.744Z,18.88
2023-06-11T07:28:03.253Z,9.88
2023-06-11T07:30:35.752Z,11.13
2023-06-11T07:33:06.260Z,10.50
2023-06-11T07:35:36.204Z,11.60
2023-06-11T07:38:04.795Z,8.80
2023-06-11T07:40:33.436Z,12.48
2023-06-11T07:43:02.677Z,8.88
2023-06-11T07:45:31.835Z,12.27
2023-06-11T07:47:59.428Z,10.02
2023-06-11T07:50:27.348Z,10.65
2023-06-11T07:52:55.437Z,10.18
2023-06-11T07:55:26.832Z,11.27
2023-06-11T07:57:55.031Z,13.13
2023-06-11T08:00:22.591Z,9.93
2023-06-11T08:02:52.586Z,10.98
2023-06-11T08:05:21.913Z,12.43
2023-06-11T08:07:50.870Z,12.82
2023-06-11T08:10:19.437Z,10.20
2023-06-11T08:12:46.529Z,12.07
2023-06-11T08:15:14.263Z,11.88
2023-06-11T08:17:41.960Z,9.93
2023-06-11T08:20:10.650Z,12.55
2023-06-11T08:22:38.162Z,17.55
2023-06-11T08:25:05.295Z,12.85
2023-06-11T08:27:33.710Z,18.55
2023-06-11T08:30:00.995Z,11.45
2023-06-11T08:32:28.710Z,10.40
2023-06-11T08:34:57.115Z,12.38
2023-06-11T08:37:27.212Z,10.32
2023-06-11T08:39:55.694Z,14.90
2023-06-11T08:42:23.129Z,10.90
2023-06-11T08:44:50.867Z,9.90
2023-06-11T08:47:20.886Z,9.65
2023-06-11T08:49:49.532Z,10.27
2023-06-11T08:52:17.025Z,11.77
2023-06-11T08:54:44.667Z,9.85
2023-06-11T08:57:12.146Z,10.02
2023-06-11T08:59:39.091Z,11.82
2023-06-11T09:02:07.436Z,10.75
2023-06-11T09:04:35.444Z,12.23
2023-06-11T09:07:03.509Z,13.45
2023-06-11T09:09:30.520Z,10.40
2023-06-11T09:11:58.261Z,10.40
2023-06-11T09:14:25.783Z,9.48
2023-06-11T09:16:54.912Z,10.98
2023-06-11T09:19:22.456Z,9.70
2023-06-11T09:21:57.938Z,12.38
2023-06-11T09:24:26.376Z,10.18
2023-06-11T09:26:58.162Z,11.52
2023-06-11T09:29:28.128Z,10.80
2023-06-11T09:32:19.550Z,10.40
2023-06-11T09:34:57.921Z,10.75
2023-06-11T09:37:24.946Z,9.23
2023-06-11T09:39:51.751Z,15.73
2023-06-11T09:42:28.667Z,9.88
2023-06-11T09:45:00.585Z,8.63
2023-06-11T09:47:32.666Z,9.07
2023-06-11T09:50:00.468Z,9.45
2023-06-11T09:52:30.380Z,9.95
2023-06-11T09:54:58.373Z,10.45
2023-06-11T09:57:26.015Z,10.68
2023-06-11T09:59:55.220Z,9.00
2023-06-11T10:02:22.423Z,11.45
2023-06-11T10:04:50.734Z,11.00
2023-06-11T10:07:19.358Z,10.68
2023-06-11T10:09:49.882Z,12.25
2023-06-11T10:12:17.749Z,8.80
2023-06-11T10:14:57.003Z,11.10
2023-06-11T10:17:26.101Z,11.38
2023-06-11T10:19:55.679Z,7.20
2023-06-11T10:22:34.719Z,7.10
2023-06-11T10:25:05.119Z,11.85
2023-06-11T10:27:37.668Z,8.93
2023-06-11T10:30:06.829Z,8.38
2023-06-11T10:32:33.667Z,8.75
2023-06-11T10:35:04.521Z,7.45
2023-06-11T10:37:34.732Z,6.10
2023-06-11T10:40:01.611Z,7.65
2023-06-11T10:42:53.353Z,10.13
2023-06-11T10:45:20.495Z,5.47
2023-06-11T10:47:51.069Z,4.30
2023-06-11T10:50:25.878Z,6.72
2023-06-11T10:52:55.525Z,5.78
2023-06-11T10:55:23.801Z,6.55
2023-06-11T10:57:54.511Z,5.20
2023-06-11T11:00:22.684Z,5.07
2023-06-11T11:02:50.661Z,5.05
2023-06-11T11:05:17.688Z,4.13
2023-06-11T11:07:47.361Z,4.90
2023-06-11T11:10:21.110Z,4.43
2023-06-11T11:12:49.122Z,5.25
2023-06-11T11:15:17.095Z,5.20
2023-06-11T11:17:45.413Z,4.45
2023-06-11T11:20:15.112Z,5.18
2023-06-11T11:22:41.970Z,5.55
2023-06-11T11:25:09.307Z,6.30
2023-06-11T11:27:38.921Z,5.38
2023-06-11T11:30:07.086Z,5.63
2023-06-11T11:32:35.394Z,5.25
2023-06-11T11:35:04.761Z,4.82
2023-06-11T11:37:31.830Z,5.95
2023-06-11T11:40:08.196Z,6.10
2023-06-11T11:42:52.097Z,6.40
2023-06-11T11:45:20.326Z,6.47
2023-06-11T11:47:52.412Z,4.80
2023-06-11T11:50:20.521Z,5.07
2023-06-11T11:53:07.495Z,6.45
2023-06-11T11:55:51.616Z,5.80
2023-06-11T11:58:26.139Z,7.05
2023-06-11T12:00:54.795Z,4.60
2023-06-11T12:03:23.460Z,8.32
2023-06-11T12:06:01.781Z,4.10
2023-06-11T12:08:31.791Z,6.65
2023-06-11T12:10:59.691Z,5.07
2023-06-11T12:13:27.253Z,8.80
2023-06-11T12:15:54.566Z,5.43
2023-06-11T12:18:21.446Z,5.75
2023-06-11T12:20:48.196Z,6.65
2023-06-11T12:23:15.653Z,5.53
2023-06-11T12:25:43.739Z,5.35
2023-06-11T12:28:10.670Z,6.13
2023-06-11T12:30:37.500Z,4.80
2023-06-11T12:33:04.495Z,4.85
2023-06-11T12:35:34.286Z,5.60
2023-06-11T12:38:02.165Z,10.95
2023-06-11T12:40:31.604Z,4.65
2023-06-11T12:43:00.385Z,7.20
2023-06-11T12:45:28.984Z,5.35
2023-06-11T12:47:59.128Z,5.68
2023-06-11T12:50:27.893Z,6.45
2023-06-11T12:52:56.245Z,7.10
2023-06-11T12:55:25.528Z,5.47
2023-06-11T12:57:52.604Z,6.13
2023-06-11T13:00:19.774Z,6.25
2023-06-11T13:02:46.663Z,5.28
2023-06-11T13:05:13.499Z,5.57
2023-06-11T13:07:40.374Z,6.25
2023-06-11T13:10:07.487Z,5.30
2023-06-11T13:12:35.226Z,8.82
2023-06-11T13:15:02.062Z,5.32
2023-06-11T13:17:28.887Z,7.13
2023-06-11T13:19:56.103Z,5.30
2023-06-11T13:22:23.388Z,4.40
2023-06-11T13:24:50.572Z,4.78
2023-06-11T13:27:18.239Z,4.50
2023-06-11T13:29:45.611Z,4.68
2023-06-11T13:32:13.048Z,6.05
2023-06-11T13:34:41.278Z,7.65
2023-06-11T13:37:08.966Z,6.90
2023-06-11T13:39:36.524Z,4.55
2023-06-11T13:42:04.554Z,3.83
2023-06-11T13:44:32.252Z,5.55
2023-06-11T13:46:59.409Z,6.72
2023-06-11T13:49:28.520Z,4.70
2023-06-11T13:51:56.537Z,5.68
2023-06-11T13:54:27.137Z,5.70
2023-06-11T13:56:55.598Z,4.60
2023-06-11T13:59:25.317Z,4.32
2023-06-11T14:01:53.515Z,5.25
2023-06-11T14:04:20.772Z,5.50
2023-06-11T14:06:49.117Z,7.68
2023-06-11T14:09:16.544Z,7.20
2023-06-11T14:11:44.012Z,5.88
2023-06-11T14:14:12.715Z,6.05
2023-06-11T14:16:40.303Z,5.25
2023-06-11T14:19:09.040Z,5.20
2023-06-11T14:21:37.124Z,6.03
2023-06-11T14:24:14.498Z,5.63
2023-06-11T14:26:41.595Z,6.28
2023-06-11T14:29:08.326Z,7.95
2023-06-11T14:31:35.483Z,11.10
2023-06-11T14:34:03.014Z,4.57
2023-06-11T14:36:31.067Z,8.80
2023-06-11T14:38:58.933Z,9.23
2023-06-11T14:41:26.258Z,5.45
2023-06-11T14:43:53.066Z,5.40
2023-06-11T14:46:19.947Z,6.60
2023-06-11T14:48:46.714Z,8.80
2023-06-11T14:51:13.500Z,4.90
2023-06-11T14:53:40.235Z,5.20
2023-06-11T14:56:07.178Z,6.00
2023-06-11T14:58:33.922Z,5.40
2023-06-11T15:01:02.293Z,4.70
2023-06-11T15:03:29.131Z,5.05
2023-06-11T15:05:57.720Z,5.28
2023-06-11T15:08:24.450Z,4.78
2023-06-11T15:10:51.339Z,5.35
2023-06-11T15:13:18.453Z,6.28
2023-06-11T15:15:45.378Z,5.47
2023-06-11T15:18:13.309Z,5.07
2023-06-11T15:20:40.127Z,4.30
2023-06-11T15:23:09.907Z,5.68
2023-06-11T15:25:37.849Z,10.00
2023-06-11T15:28:04.883Z,5.63
2023-06-11T15:30:31.642Z,5.85
2023-06-11T15:32:59.521Z,5.53
2023-06-11T15:35:26.743Z,6.47
2023-06-11T15:37:54.827Z,4.28
2023-06-11T15:40:23.323Z,6.30
2023-06-11T15:42:50.168Z,5.13
2023-06-11T15:45:17.156Z,4.82
2023-06-11T15:47:44.107Z,6.22
2023-06-11T15:50:11.926Z,5.30
2023-06-11T15:52:39.043Z,4.43
2023-06-11T15:55:06.376Z,5.70
2023-06-11T15:57:33.209Z,6.25
2023-06-11T16:00:00.059Z,6.10
2023-06-11T16:02:26.968Z,4.72
2023-06-11T16:04:54.113Z,5.22
2023-06-11T16:07:21.002Z,6.72
2023-06-11T16:09:48.175Z,4.82
2023-06-11T16:12:15.797Z,5.47
2023-06-11T16:14:43.063Z,5.22
2023-06-11T16:17:09.899Z,5.25
2023-06-11T16:19:36.789Z,6.13
2023-06-11T16:22:03.916Z,5.43
2023-06-11T16:24:30.759Z,4.72
2023-06-11T16:26:57.525Z,8.88
2023-06-11T16:29:25.203Z,4.85
2023-06-11T16:31:52.071Z,5.18
2023-06-11T16:34:18.877Z,5.03
2023-06-11T16:36:45.575Z,6.10
2023-06-11T16:39:26.419Z,6.53
2023-06-11T16:41:53.958Z,6.90
2023-06-11T16:44:20.992Z,6.43
2023-06-11T16:46:48.048Z,5.60
2023-06-11T16:49:16.233Z,4.90
2023-06-11T16:51:43.630Z,4.50
2023-06-11T16:54:10.760Z,5.72
2023-06-11T16:56:38.387Z,7.05
2023-06-11T16:59:07.428Z,6.50
2023-06-11T17:01:34.636Z,5.80
2023-06-11T17:04:01.762Z,5.55
2023-06-11T17:06:28.629Z,6.35
2023-06-11T17:08:56.089Z,5.13
2023-06-11T17:11:22.854Z,7.35
2023-06-11T17:13:50.495Z,7.22
2023-06-11T17:16:17.401Z,6.13
2023-06-11T17:18:44.429Z,7.13
2023-06-11T17:21:11.758Z,6.85
2023-06-11T17:23:38.617Z,7.10
2023-06-11T17:26:05.450Z,10.20
2023-06-11T17:28:32.239Z,6.22
2023-06-11T17:33:26.002Z,5.40
2023-06-11T17:35:53.470Z,6.63
2023-06-11T17:38:21.002Z,6.68
2023-06-11T17:40:47.866Z,8.27
2023-06-11T17:45:41.281Z,6.30
2023-06-11T17:48:08.326Z,10.65
2023-06-11T17:50:35.137Z,8.73
2023-06-11T17:53:02.513Z,6.60
2023-06-11T17:55:29.501Z,6.63
2023-06-11T17:57:57.094Z,11.02
2023-06-11T18:00:24.606Z,7.65
2023-06-11T18:02:52.359Z,7.28
2023-06-11T18:05:19.254Z,6.57
2023-06-11T18:10:17.373Z,11.50
2023-06-11T18:12:45.373Z,5.97
2023-06-11T18:15:27.408Z,6.30
2023-06-11T18:17:58.992Z,7.53
2023-06-11T18:20:25.901Z,9.40
2023-06-11T18:25:19.533Z,10.00
2023-06-11T18:30:13.184Z,7.43
2023-06-11T18:32:40.130Z,10.93
2023-06-11T18:37:33.749Z,9.45
2023-06-11T18:42:27.398Z,6.30
2023-06-11T18:47:20.989Z,7.18
2023-06-11T18:49:47.790Z,7.07
2023-06-11T18:52:14.930Z,10.68
2023-06-11T18:54:41.675Z,6.85
2023-06-11T18:57:09.582Z,8.77
2023-06-11T18:59:37.325Z,10.70
2023-06-11T19:02:05.023Z,9.38
2023-06-11T19:04:32.103Z,8.48
2023-06-11T19:06:58.960Z,9.82
2023-06-11T19:09:25.997Z,11.30
2023-06-11T19:11:52.782Z,8.50
2023-06-11T19:14:19.516Z,9.68
2023-06-11T19:16:49.256Z,9.77
2023-06-11T19:19:19.176Z,8.30
2023-06-11T19:21:46.985Z,11.23
2023-06-11T19:24:16.710Z,7.53
2023-06-11T19:26:43.993Z,10.25
2023-06-11T19:29:10.903Z,9.85
2023-06-11T19:34:05.777Z,12.10
2023-06-11T19:36:32.516Z,10.18
2023-06-11T19:38:59.252Z,11.07
2023-06-11T19:41:30.528Z,10.43
2023-06-11T19:43:58.452Z,13.18
2023-06-11T19:46:28.521Z,14.57
2023-06-11T19:48:56.285Z,9.90
2023-06-11T19:51:23.151Z,9.93
2023-06-11T19:56:20.509Z,9.88
2023-06-11T19:58:48.294Z,12.07
2023-06-11T20:01:17.170Z,10.00
2023-06-11T20:03:45.726Z,9.23
2023-06-11T20:06:13.379Z,8.70
2023-06-11T20:08:41.453Z,10.30
2023-06-11T20:11:12.314Z,11.85
2023-06-11T20:13:46.524Z,8.38
2023-06-11T20:16:13.895Z,8.15
2023-06-11T20:18:43.998Z,8.05
2023-06-11T20:21:10.919Z,9.63
2023-06-11T20:23:37.968Z,7.85
2023-06-11T20:26:05.330Z,8.95
2023-06-11T20:28:32.453Z,9.05
2023-06-11T20:31:04.331Z,8.40
2023-06-11T20:33:32.284Z,10.52
2023-06-11T20:35:59.048Z,12.43
2023-06-11T20:38:25.864Z,12.43
2023-06-11T20:40:52.556Z,10.13
2023-06-11T20:43:19.283Z,14.02
2023-06-11T20:45:56.818Z,10.80
2023-06-11T20:48:24.364Z,13.63
2023-06-11T20:50:51.427Z,12.02
2023-06-11T20:56:00.334Z,12.07
2023-06-11T20:58:27.070Z,12.35
2023-06-11T21:00:53.855Z,16.73
2023-06-11T21:05:51.038Z,13.63
2023-06-11T21:08:19.086Z,13.40
2023-06-11T21:10:48.895Z,15.70
2023-06-11T21:13:15.753Z,15.75
2023-06-11T21:15:42.779Z,13.60
2023-06-11T21:18:09.683Z,12.63
2023-06-11T21:23:04.475Z,10.57
2023-06-11T21:27:57.755Z,16.00
2023-06-11T21:30:24.498Z,22.30
2023-06-11T21:32:51.288Z,10.30
2023-06-11T21:35:18.040Z,13.48
2023-06-11T21:37:44.773Z,11.57
2023-06-11T21:40:13.101Z,11.50
2023-06-11T21:42:40.313Z,9.32
2023-06-11T21:45:07.391Z,11.27
2023-06-11T21:47:34.163Z,14.02
2023-06-11T21:50:00.945Z,14.45
2023-06-11T21:52:28.421Z,14.05
2023-06-11T21:54:58.159Z,14.48
2023-06-11T21:57:25.765Z,12.55
2023-06-11T21:59:52.746Z,14.32
2023-06-11T22:04:46.191Z,14.73
2023-06-11T22:07:13.923Z,18.25
2023-06-11T22:09:41.758Z,10.35
2023-06-11T22:12:09.540Z,18.25
2023-06-11T22:14:36.563Z,10.80
2023-06-11T22:19:30.088Z,11.20
2023-06-11T22:21:56.868Z,11.95
2023-06-11T22:24:23.677Z,14.10
2023-06-11T22:29:17.538Z,15.80
2023-06-11T22:31:44.376Z,11.30
2023-06-11T22:36:38.082Z,17.55
2023-06-11T22:39:04.832Z,14.82
2023-06-11T22:41:31.576Z,15.27
2023-06-11T22:43:58.414Z,14.55
2023-06-11T22:46:25.197Z,19.10
2023-06-11T22:48:52.116Z,17.10
2023-06-11T22:53:45.827Z,13.13
2023-06-11T22:58:39.685Z,10.73
2023-06-11T23:01:06.911Z,15.23
2023-06-11T23:03:33.805Z,18.38
2023-06-11T23:08:27.358Z,15.20
2023-06-11T23:10:54.160Z,15.88
2023-06-11T23:13:20.923Z,11.93
2023-06-11T23:15:47.753Z,15.30
2023-06-11T23:20:47.859Z,11.70
2023-06-11T23:23:16.811Z,13.35
2023-06-11T23:25:45.564Z,14.25
2023-06-11T23:28:14.446Z,16.42
2023-06-11T23:30:41.933Z,13.50
2023-06-11T23:33:09.258Z,16.20
2023-06-11T23:35:36.047Z,17.33
2023-06-11T23:38:03.983Z,14.63
2023-06-11T23:40:30.922Z,14.23
2023-06-11T23:45:24.272Z,15.35
2023-06-11T23:47:51.135Z,14.80
2023-06-11T23:52:44.733Z,14.75
2023-06-11T23:55:11.536Z,12.98
2023-06-11T23:57:38.917Z,16.95
